Time;durP1;ratioP1;P1;durP2;ratioP2;P2;SDS_P1;SDS_P2;PMS_P1;PMS_P2;Temp;Humidity;BMP_temperature;BMP_pressure;BME280_temperature;BME280_humidity;BME280_pressure;Samples;Min_cycle;Max_cycle;Signal;HPM_P1;HPM_P2
2022/06/18 00:00:48;;;;;;;11.98;4.85;;;;;;;22.32;51.82;101076.81;5137339;27;20098;-49
2022/06/18 00:03:14;;;;;;;7.70;4.20;;;;;;;22.29;51.60;101076.50;5136922;27;20103;-48
2022/06/18 00:05:42;;;;;;;21.13;4.97;;;;;;;22.21;52.59;101069.53;5137723;27;20091;-49
2022/06/18 00:08:14;;;;;;;18.08;5.75;;;;;;;22.29;52.87;101068.28;5136364;27;20455;-48
2022/06/18 00:10:40;;;;;;;18.75;5.65;;;;;;;22.12;53.50;101047.31;5137835;27;20031;-49
2022/06/18 00:13:42;;;;;;;12.50;4.88;;;;;;;22.20;53.88;101079.66;5138351;27;20053;-49
2022/06/18 00:16:12;;;;;;;15.85;5.25;;;;;;;22.11;52.76;101075.72;5136772;27;20080;-48
2022/06/18 00:18:38;;;;;;;19.17;5.50;;;;;;;22.06;52.76;101074.84;5137878;27;20106;-49
2022/06/18 00:21:06;;;;;;;22.02;5.60;;;;;;;21.95;53.68;101062.94;5136578;27;20039;-52
2022/06/18 00:23:31;;;;;;;18.73;6.25;;;;;;;21.93;54.80;101052.25;5136780;27;20487;-48
2022/06/18 00:25:57;;;;;;;16.25;5.65;;;;;;;21.99;54.65;101072.28;5138167;27;20058;-49
2022/06/18 00:28:26;;;;;;;21.65;5.10;;;;;;;21.87;54.27;101055.22;5137692;27;20468;-48
2022/06/18 00:30:53;;;;;;;20.63;5.43;;;;;;;21.90;54.30;101071.09;5136557;27;20488;-50
2022/06/18 00:33:20;;;;;;;18.13;6.43;;;;;;;21.85;55.14;101075.41;5137462;27;20136;-49
2022/06/18 00:35:47;;;;;;;18.70;6.03;;;;;;;21.64;55.70;101048.91;5137223;27;20075;-49
2022/06/18 00:38:23;;;;;;;13.10;5.05;;;;;;;21.75;55.20;101069.84;5136117;27;20038;-48
2022/06/18 00:40:48;;;;;;;17.27;5.53;;;;;;;21.73;54.36;101071.16;5135870;27;20046;-50
2022/06/18 00:43:21;;;;;;;13.40;5.07;;;;;;;21.59;54.95;101057.84;5137354;27;20055;-52
2022/06/18 00:45:50;;;;;;;18.35;5.32;;;;;;;21.54;56.23;101062.44;5136034;27;20023;-51
2022/06/18 00:48:55;;;;;;;25.95;5.80;;;;;;;21.58;56.24;101078.09;5137127;27;20027;-49
2022/06/18 00:51:24;;;;;;;;;;;;;;;21.52;56.68;101078.25;5125081;27;20031;-47
2022/06/18 00:53:53;;;;;;;17.58;5.25;;;;;;;21.41;56.02;101075.34;5137436;27;19915;-50
2022/06/18 00:56:25;;;;;;;12.90;5.35;;;;;;;21.43;55.52;101088.75;5135925;27;20031;-47
2022/06/18 00:58:58;;;;;;;10.93;4.75;;;;;;;21.35;55.75;101084.53;5136942;27;20035;-47
2022/06/18 01:01:30;;;;;;;18.15;5.90;;;;;;;21.31;56.19;101080.66;5137132;27;20023;-49
2022/06/18 01:03:56;;;;;;;18.00;5.40;;;;;;;21.29;55.76;101082.00;5137562;27;20465;-48
2022/06/18 01:06:28;;;;;;;13.40;5.20;;;;;;;21.16;56.36;101073.06;5138495;27;20023;-48
2022/06/18 01:09:00;;;;;;;13.07;4.53;;;;;;;21.19;56.31;101075.28;5136636;27;20089;-51
2022/06/18 01:11:30;;;;;;;13.00;4.93;;;;;;;21.06;56.46;101079.19;5137114;27;20039;-50
2022/06/18 01:13:57;;;;;;;16.35;4.63;;;;;;;21.05;56.42;101079.44;5136706;27;20083;-48
2022/06/18 01:16:25;;;;;;;13.30;4.65;;;;;;;20.99;56.55;101086.72;5136963;27;20363;-49
2022/06/18 01:18:52;;;;;;;16.63;5.10;;;;;;;20.93;57.23;101087.72;5136791;27;20027;-49
2022/06/18 01:21:44;;;;;;;15.43;4.72;;;;;;;20.85;58.99;101096.31;5136431;27;20080;-47
2022/06/18 01:24:14;;;;;;;16.40;4.68;;;;;;;20.71;58.29;101089.50;5121949;27;20038;-47
2022/06/18 01:26:43;;;;;;;11.98;4.90;;;;;;;20.80;57.61;101104.41;5136491;27;20031;-50
2022/06/18 01:29:09;;;;;;;13.43;4.43;;;;;;;20.77;57.35;101104.91;5135574;27;20027;-49
2022/06/18 01:31:35;;;;;;;17.25;5.38;;;;;;;20.74;57.67;101097.19;5136305;27;20034;-50
2022/06/18 01:34:01;;;;;;;14.88;4.63;;;;;;;20.58;57.62;101066.88;5134891;27;20324;-50
2022/06/18 01:36:33;;;;;;;11.27;4.38;;;;;;;20.65;58.04;101092.16;5134567;27;20073;-47
2022/06/18 01:38:59;;;;;;;17.05;4.53;;;;;;;20.54;58.54;101098.47;5135968;27;20038;-49
2022/06/18 01:44:26;;;;;;;16.40;4.93;;;;;;;20.43;58.98;101096.59;5135201;27;20030;-49
2022/06/18 01:46:55;;;;;;;11.65;4.97;;;;;;;20.31;58.49;101078.38;5134608;27;20027;-51
2022/06/18 01:49:27;;;;;;;17.30;5.10;;;;;;;20.47;59.10;101106.78;5135858;27;20027;-48
2022/06/18 01:51:55;;;;;;;14.50;4.63;;;;;;;20.45;58.35;101108.13;5135876;27;20028;-48
2022/06/18 01:54:30;;;;;;;11.10;4.57;;;;;;;19.94;58.42;101028.03;5135776;27;20053;-49
2022/06/18 01:57:01;;;;;;;10.20;4.30;;;;;;;20.40;58.75;101111.56;5135929;27;20364;-48
2022/06/18 01:59:32;;;;;;;11.68;4.75;;;;;;;20.37;59.19;101114.75;5136350;27;20038;-46
2022/06/18 02:01:59;;;;;;;13.15;4.97;;;;;;;20.21;58.69;101093.75;5137612;27;20023;-49
2022/06/18 02:04:27;;;;;;;13.63;4.97;;;;;;;20.30;58.73;101120.38;5137130;27;20073;-49
2022/06/18 02:06:53;;;;;;;6.43;4.05;;;;;;;20.28;59.59;101118.94;5117680;27;20024;-53
2022/06/18 02:09:52;;;;;;;9.10;3.88;;;;;;;20.19;60.67;101110.34;5136830;27;20081;-49
2022/06/18 02:12:22;;;;;;;10.07;4.40;;;;;;;20.14;59.78;101104.78;5135633;27;20397;-49
2022/06/18 02:14:57;;;;;;;12.73;5.05;;;;;;;20.00;60.41;101087.88;5136074;27;20160;-50
2022/06/18 02:17:26;;;;;;;12.38;4.55;;;;;;;19.97;60.69;101103.88;5134479;27;20088;-51
2022/06/18 02:19:55;;;;;;;19.50;5.18;;;;;;;19.81;60.38;101084.44;5134477;27;20023;-51
2022/06/18 02:22:29;;;;;;;20.80;5.32;;;;;;;19.99;60.29;101112.66;5136774;27;20364;-50
2022/06/18 02:24:56;;;;;;;13.60;4.68;;;;;;;19.97;60.36;101117.50;5134500;27;20114;-48
2022/06/18 02:27:23;;;;;;;17.90;5.72;;;;;;;19.79;61.06;101089.31;5117279;27;20062;-50
2022/06/18 02:29:49;;;;;;;13.95;5.57;;;;;;;19.91;60.71;101106.50;5136475;27;20031;-51
2022/06/18 02:32:26;;;;;;;17.27;5.05;;;;;;;19.94;60.50;101109.81;5136493;27;20059;-50
2022/06/18 02:34:52;;;;;;;9.35;4.40;;;;;;;19.91;60.61;101106.50;5136369;27;20033;-48
2022/06/18 02:37:25;;;;;;;15.73;4.72;;;;;;;19.86;60.86;101111.81;5134415;27;20028;-49
2022/06/18 02:39:55;;;;;;;15.00;4.53;;;;;;;19.82;60.68;101102.47;5118519;27;20490;-52
2022/06/18 02:42:21;;;;;;;11.90;4.90;;;;;;;19.70;60.60;101082.53;5135957;27;20027;-51
2022/06/18 02:44:48;;;;;;;11.85;4.72;;;;;;;19.78;60.95;101095.84;5136430;27;20027;-52
2022/06/18 02:47:15;;;;;;;17.73;5.25;;;;;;;19.76;60.39;101091.69;5135752;27;20023;-49
2022/06/18 02:49:50;;;;;;;23.33;5.78;;;;;;;19.69;60.96;101078.19;5135810;27;20035;-48
2022/06/18 02:52:16;;;;;;;8.25;4.43;;;;;;;19.66;60.64;101075.94;5135913;27;20054;-47
2022/06/18 02:54:42;;;;;;;11.93;4.50;;;;;;;19.65;60.68;101074.25;5134782;27;20462;-49
2022/06/18 02:57:22;;;;;;;10.68;4.38;;;;;;;19.68;61.58;101088.22;5135954;27;20031;-48
2022/06/18 02:59:48;;;;;;;14.60;4.50;;;;;;;19.58;61.50;101077.13;5134577;27;20119;-48
2022/06/18 03:02:13;;;;;;;11.98;4.55;;;;;;;19.65;60.96;101096.06;5135381;27;20053;-47
2022/06/18 03:04:39;;;;;;;11.65;4.75;;;;;;;19.58;60.81;101090.75;5135895;27;20051;-49
2022/06/18 03:07:05;;;;;;;12.50;4.90;;;;;;;19.59;60.81;101094.28;5135583;27;20463;-49
2022/06/18 03:12:06;;;;;;;11.30;4.80;;;;;;;19.58;60.91;101095.38;5135679;27;20049;-49
2022/06/18 03:12:16;;;;;;;10.77;4.38;;;;;;;19.43;61.27;101074.06;5120873;27;20459;-50
2022/06/18 03:14:42;;;;;;;9.40;4.70;;;;;;;19.50;61.30;101089.22;5136111;27;20065;-48
2022/06/18 03:17:08;;;;;;;13.10;4.72;;;;;;;19.46;61.76;101088.00;5136421;27;20079;-48
2022/06/18 03:19:39;;;;;;;13.98;4.15;;;;;;;19.39;61.33;101075.59;5133534;27;20058;-51
2022/06/18 03:22:12;;;;;;;12.02;4.07;;;;;;;19.43;61.26;101085.78;5135843;27;20023;-48
2022/06/18 03:24:40;;;;;;;9.32;4.05;;;;;;;19.32;61.35;101075.72;5134109;27;20035;-48
2022/06/18 03:27:07;;;;;;;8.10;3.90;;;;;;;19.27;61.60;101079.13;5135332;27;20031;-50
2022/06/18 03:29:33;;;;;;;15.45;5.45;;;;;;;19.13;62.90;101077.72;5135594;27;20023;-51
2022/06/18 03:32:01;;;;;;;10.70;4.78;;;;;;;19.07;62.93;101074.03;5117237;28;20029;-51
2022/06/18 03:34:27;;;;;;;11.63;4.72;;;;;;;19.12;62.06;101079.59;5134025;28;20498;-47
2022/06/18 03:36:52;;;;;;;10.40;3.97;;;;;;;19.13;62.47;101110.41;5135875;27;20035;-48
2022/06/18 03:39:18;;;;;;;14.38;5.03;;;;;;;19.07;62.50;101089.53;5135852;27;20031;-47
2022/06/18 03:41:44;;;;;;;14.13;4.60;;;;;;;19.06;62.98;101088.72;5135543;27;20035;-47
2022/06/18 03:44:10;;;;;;;10.27;4.18;;;;;;;18.90;63.51;101089.41;5134032;28;20056;-47
2022/06/18 03:46:38;;;;;;;13.43;4.97;;;;;;;18.91;63.18;101080.19;5135108;28;20371;-48
2022/06/18 03:49:06;;;;;;;11.52;4.88;;;;;;;18.90;63.07;101086.69;5137119;27;20046;-48
2022/06/18 03:51:33;;;;;;;11.32;4.68;;;;;;;18.83;64.36;101107.72;5135442;28;20546;-47
2022/06/18 03:53:59;;;;;;;13.00;4.57;;;;;;;18.69;64.95;101098.91;5136664;27;20027;-47
2022/06/18 03:56:28;;;;;;;11.98;4.32;;;;;;;18.79;64.04;101106.50;5135566;27;20051;-47
2022/06/18 03:58:55;;;;;;;15.10;4.60;;;;;;;18.71;64.14;101100.31;5117120;28;20483;-47
2022/06/18 04:01:24;;;;;;;16.73;5.07;;;;;;;18.64;65.12;101107.75;5133534;28;20031;-47
2022/06/18 04:03:49;;;;;;;10.70;4.75;;;;;;;18.52;65.40;101101.47;5135116;27;20030;-47
2022/06/18 04:06:15;;;;;;;16.40;4.70;;;;;;;18.47;65.49;101095.88;5135436;28;20447;-47
2022/06/18 04:08:42;;;;;;;7.72;3.58;;;;;;;18.47;64.70;101091.25;5135107;28;20051;-48
2022/06/18 04:11:09;;;;;;;8.70;3.88;;;;;;;18.60;64.20;101089.41;5133906;28;20143;-48
2022/06/18 04:13:35;;;;;;;9.90;4.45;;;;;;;18.74;64.19;101090.88;5136377;27;20038;-49
2022/06/18 04:16:01;;;;;;;11.23;4.00;;;;;;;18.67;64.76;101093.69;5135961;28;20027;-52
2022/06/18 04:18:27;;;;;;;11.68;3.97;;;;;;;18.58;65.16;101095.91;5135684;27;20031;-49
2022/06/18 04:20:54;;;;;;;10.13;5.07;;;;;;;18.52;66.19;101101.47;5135070;27;20023;-48
2022/06/18 04:23:20;;;;;;;10.43;3.97;;;;;;;18.37;65.53;101099.16;5134706;27;20031;-47
2022/06/18 04:25:45;;;;;;;12.52;4.03;;;;;;;18.42;65.54;101096.56;5134793;28;20398;-46
2022/06/18 04:28:14;;;;;;;10.13;4.68;;;;;;;18.51;65.66;101116.09;5135515;27;20042;-47
2022/06/18 04:30:40;;;;;;;8.85;3.30;;;;;;;18.55;65.15;101118.16;5101156;27;20037;-49
2022/06/18 04:33:07;;;;;;;8.00;3.60;;;;;;;18.52;65.05;101125.94;5139638;27;20035;-46
2022/06/18 04:35:33;;;;;;;8.38;4.00;;;;;;;18.43;65.96;101128.13;5138723;27;20031;-46
2022/06/18 04:38:00;;;;;;;13.63;3.83;;;;;;;18.47;65.35;101115.72;5120861;27;20035;-47
2022/06/18 04:40:32;;;;;;;16.70;3.85;;;;;;;18.54;65.51;101126.53;5139536;27;20118;-47
2022/06/18 04:43:00;;;;;;;6.88;3.42;;;;;;;18.48;65.88;101124.72;5137673;27;20455;-46
2022/06/18 04:45:27;;;;;;;14.00;4.40;;;;;;;18.36;66.47;101106.47;5139147;27;20035;-46
2022/06/18 04:47:53;;;;;;;4.90;3.10;;;;;;;18.43;66.09;101119.97;5137328;27;20023;-50
2022/06/18 04:50:22;;;;;;;12.18;3.70;;;;;;;18.57;65.38;101113.31;5139074;27;20027;-50
2022/06/18 04:52:48;;;;;;;9.18;3.50;;;;;;;18.68;65.40;101110.84;5137892;27;20035;-48
2022/06/18 04:55:14;;;;;;;16.27;4.95;;;;;;;18.52;66.74;101118.59;5137473;27;20054;-48
2022/06/18 04:57:40;;;;;;;7.97;3.75;;;;;;;18.49;66.25;101099.19;5138597;27;20463;-48
2022/06/18 05:00:07;;;;;;;9.35;4.07;;;;;;;18.48;66.08;101098.38;5138071;27;20038;-45
2022/06/18 05:02:34;;;;;;;10.57;4.30;;;;;;;18.42;66.08;101088.38;5136452;27;20019;-46
2022/06/18 05:05:02;;;;;;;15.25;4.18;;;;;;;18.62;66.45;101115.31;5136996;27;20105;-49
2022/06/18 05:07:27;;;;;;;11.52;4.60;;;;;;;18.67;66.33;101118.19;5137656;27;20024;-47
2022/06/18 05:09:53;;;;;;;7.57;3.13;;;;;;;18.79;65.19;101098.34;5136789;27;20070;-47
2022/06/18 05:12:19;;;;;;;13.10;3.53;;;;;;;18.87;65.88;101101.59;5137362;27;20035;-47
2022/06/18 05:14:44;;;;;;;12.60;4.13;;;;;;;18.91;65.73;101112.84;5119700;27;20038;-48
2022/06/18 05:17:16;;;;;;;12.45;4.50;;;;;;;18.92;65.56;101109.03;5138354;27;20027;-47
2022/06/18 05:19:42;;;;;;;10.23;3.80;;;;;;;18.93;65.24;101106.09;5136564;27;20114;-47
2022/06/18 05:22:09;;;;;;;8.60;4.10;;;;;;;19.12;64.56;101117.72;5137445;27;20023;-48
2022/06/18 05:24:35;;;;;;;9.98;3.65;;;;;;;19.14;63.98;101112.88;5136151;27;20038;-47
2022/06/18 05:27:03;;;;;;;10.43;3.45;;;;;;;19.33;63.67;101123.66;5136316;27;20027;-48
2022/06/18 05:29:29;;;;;;;12.57;4.15;;;;;;;19.32;64.06;101113.84;5137459;27;20054;-47
2022/06/18 05:31:55;;;;;;;11.43;3.67;;;;;;;19.25;64.50;101124.84;5137320;27;20042;-47
2022/06/18 05:34:21;;;;;;;5.32;3.13;;;;;;;19.38;63.90;101137.41;5137057;27;20387;-47
2022/06/18 05:36:47;;;;;;;11.73;3.53;;;;;;;19.29;64.13;101120.56;5136126;27;20027;-50
2022/06/18 05:39:16;;;;;;;7.85;3.78;;;;;;;19.39;63.67;101135.50;5118562;27;20038;-47
2022/06/18 05:41:42;;;;;;;11.57;4.43;;;;;;;19.34;63.54;101125.34;5135505;27;20030;-47
2022/06/18 05:44:07;;;;;;;7.63;4.35;;;;;;;19.45;63.34;101140.84;5136915;27;20023;-48
2022/06/18 05:46:38;;;;;;;7.53;3.72;;;;;;;19.49;63.36;101130.31;5137474;27;20035;-47
2022/06/18 05:49:03;;;;;;;8.32;4.03;;;;;;;19.46;63.07;101103.53;5137728;27;20034;-49
2022/06/18 05:51:29;;;;;;;8.60;4.25;;;;;;;19.65;62.88;101126.03;5135705;27;20031;-48
2022/06/18 05:53:55;;;;;;;9.90;4.25;;;;;;;19.64;62.90;101127.13;5137220;27;20045;-48
2022/06/18 05:56:21;;;;;;;8.48;3.47;;;;;;;19.66;62.56;101119.53;5118322;27;20080;-51
2022/06/18 05:58:46;;;;;;;6.90;3.22;;;;;;;19.62;62.29;101102.00;5136615;27;20035;-47
2022/06/18 06:01:12;;;;;;;6.25;3.72;;;;;;;19.74;62.45;101116.47;5137183;27;20034;-48
2022/06/18 06:03:38;;;;;;;10.85;4.72;;;;;;;19.58;63.86;101122.63;5136794;27;20027;-48
2022/06/18 06:06:04;;;;;;;8.80;4.13;;;;;;;19.58;63.48;101125.34;5135871;27;20045;-51
2022/06/18 06:08:30;;;;;;;7.28;4.07;;;;;;;19.64;63.83;101143.47;5136893;27;20050;-48
2022/06/18 06:13:41;;;;;;;12.95;4.03;;;;;;;19.83;63.05;101136.00;5135971;27;20031;-48
2022/06/18 06:16:08;;;;;;;6.97;3.55;;;;;;;19.94;62.78;101143.34;5136831;27;20071;-49
2022/06/18 06:18:34;;;;;;;8.30;4.00;;;;;;;20.06;62.58;101141.44;5136285;27;20031;-49
2022/06/18 06:21:01;;;;;;;9.65;3.45;;;;;;;20.13;61.84;101127.66;5136066;27;20031;-47
2022/06/18 06:23:27;;;;;;;6.78;3.03;;;;;;;20.30;61.98;101138.66;5135415;27;20459;-51
2022/06/18 06:25:54;;;;;;;9.38;3.47;;;;;;;20.30;61.71;101128.56;5136522;27;20451;-46
2022/06/18 06:28:23;;;;;;;6.57;3.33;;;;;;;20.35;62.00;101132.47;5137096;27;20031;-47
2022/06/18 06:30:50;;;;;;;8.38;3.50;;;;;;;20.45;61.83;101146.31;5135223;27;20038;-49
2022/06/18 06:33:16;;;;;;;6.22;3.15;;;;;;;20.47;61.86;101149.63;5136159;27;20027;-47
2022/06/18 06:35:43;;;;;;;8.60;3.65;;;;;;;20.49;61.79;101150.22;5136799;27;20038;-47
2022/06/18 06:38:09;;;;;;;10.15;2.85;;;;;;;20.66;61.00;101153.03;5135809;27;20055;-47
2022/06/18 06:40:35;;;;;;;7.00;3.03;;;;;;;20.72;61.33;101143.03;5136346;27;20023;-48
2022/06/18 06:43:02;;;;;;;10.02;4.18;;;;;;;20.56;62.00;101136.41;5136261;27;20031;-47
2022/06/18 06:45:32;;;;;;;6.68;3.63;;;;;;;20.59;62.00;101144.13;5135153;27;20051;-48
2022/06/18 06:47:58;;;;;;;5.13;2.97;;;;;;;20.70;61.05;101140.53;5136406;27;20391;-48
2022/06/18 06:50:27;;;;;;;5.70;2.90;;;;;;;20.86;60.50;101161.59;5135852;27;20042;-47
2022/06/18 06:52:53;;;;;;;9.82;3.13;;;;;;;20.96;60.41;101144.53;5134800;27;20040;-50
2022/06/18 06:58:11;;;;;;;5.68;2.33;;;;;;;21.11;59.62;101154.09;5135302;27;20105;-48
2022/06/18 07:00:41;;;;;;;5.07;2.20;;;;;;;21.05;59.75;101170.38;5134479;27;20060;-51
2022/06/18 07:03:10;;;;;;;5.95;3.20;;;;;;;20.92;60.26;101167.97;5134695;27;20371;-47
2022/06/18 07:05:36;;;;;;;5.32;2.38;;;;;;;20.95;60.57;101175.69;5136049;27;20027;-60
2022/06/18 07:08:03;;;;;;;5.97;2.00;;;;;;;20.97;60.36;101176.25;5134747;27;20047;-48
2022/06/18 07:10:28;;;;;;;5.72;2.08;;;;;;;20.97;60.01;101145.38;5136188;27;20032;-49
2022/06/18 07:12:54;;;;;;;6.32;1.85;;;;;;;21.14;59.33;101151.69;5134583;27;20034;-48
2022/06/18 07:15:20;;;;;;;6.13;2.10;;;;;;;21.24;58.89;101129.16;5135088;27;20027;-49
2022/06/18 07:17:46;;;;;;;3.85;2.13;;;;;;;21.34;58.56;101136.69;5134411;27;20042;-47
2022/06/18 07:20:15;;;;;;;4.35;2.58;;;;;;;21.34;58.90;101148.47;5135969;27;20031;-48
2022/06/18 07:22:41;;;;;;;4.47;2.45;;;;;;;21.36;58.40;101148.19;5134487;27;20031;-49
2022/06/18 07:25:08;;;;;;;3.72;2.03;;;;;;;21.17;58.81;101125.78;5134254;27;20027;-47
2022/06/18 07:27:34;;;;;;;3.85;2.20;;;;;;;20.93;59.45;101109.56;5135250;27;20027;-48
2022/06/18 07:30:00;;;;;;;8.50;2.72;;;;;;;20.74;59.79;101113.56;5134902;27;20027;-49
2022/06/18 07:32:26;;;;;;;3.47;2.05;;;;;;;20.69;60.23;101097.94;5134073;27;20028;-49
2022/06/18 07:34:53;;;;;;;5.55;3.08;;;;;;;20.96;59.74;101125.44;5135491;27;20087;-46
2022/06/18 07:37:21;;;;;;;6.45;2.42;;;;;;;21.36;59.21;101137.28;5135172;27;20035;-48
2022/06/18 07:39:46;;;;;;;6.03;2.97;;;;;;;21.61;58.34;101139.59;5133910;28;20035;-49
2022/06/18 07:42:15;;;;;;;7.60;2.80;;;;;;;21.34;59.25;101145.75;5134019;28;20023;-50
2022/06/18 07:44:41;;;;;;;3.88;2.70;;;;;;;21.42;59.34;101152.69;5133950;28;20068;-47
2022/06/18 07:47:12;;;;;;;4.97;2.60;;;;;;;21.54;59.18;101145.25;5134470;28;20026;-52
2022/06/18 07:49:38;;;;;;;3.97;2.38;;;;;;;21.56;58.70;101126.72;5134073;28;20038;-47
2022/06/18 07:52:04;;;;;;;8.07;2.40;;;;;;;21.96;58.51;101113.84;5133441;28;20027;-48
2022/06/18 07:54:29;;;;;;;6.65;3.05;;;;;;;22.07;57.47;101099.22;5134950;27;20065;-47
2022/06/18 07:56:55;;;;;;;5.78;2.20;;;;;;;22.07;57.94;101087.44;5133782;28;20111;-48
2022/06/18 07:59:23;;;;;;;7.60;2.67;;;;;;;21.96;58.18;101094.69;5134359;28;20079;-49
2022/06/18 08:01:49;;;;;;;4.05;2.85;;;;;;;21.99;58.36;101099.66;5135608;28;20030;-47
2022/06/18 08:04:15;;;;;;;3.50;2.08;;;;;;;22.13;57.44;101089.97;5135341;27;20035;-48
2022/06/18 08:06:41;;;;;;;8.95;2.45;;;;;;;21.93;57.84;101087.00;5136870;27;20031;-47
2022/06/18 08:09:08;;;;;;;4.20;2.53;;;;;;;21.98;57.93;101087.06;5138879;27;20047;-47
2022/06/18 08:11:35;;;;;;;4.90;2.40;;;;;;;21.96;57.72;101091.97;5139019;27;20451;-48
2022/06/18 08:14:01;;;;;;;4.65;2.60;;;;;;;21.91;57.74;101084.50;5138803;27;20387;-49
2022/06/18 08:16:27;;;;;;;3.60;2.08;;;;;;;22.01;57.00;101081.91;5139763;27;20031;-47
2022/06/18 08:18:53;;;;;;;3.80;2.05;;;;;;;22.14;56.77;101094.38;5138883;27;20469;-53
2022/06/18 08:21:28;;;;;;;3.17;1.80;;;;;;;22.21;56.61;101113.31;5138806;27;20030;-47
2022/06/18 08:24:00;;;;;;;6.57;2.30;;;;;;;22.35;56.87;101105.59;5120794;27;20023;-47
2022/06/18 08:26:26;;;;;;;4.88;2.47;;;;;;;22.72;55.64;101080.22;5138936;27;20106;-46
2022/06/18 08:28:52;;;;;;;7.70;3.72;;;;;;;22.91;54.97;101072.44;5138815;27;20034;-46
2022/06/18 08:31:18;;;;;;;5.25;2.20;;;;;;;23.19;54.98;101104.19;5137275;27;20057;-47
2022/06/18 08:33:44;;;;;;;7.38;2.40;;;;;;;23.12;54.67;101107.19;5138901;27;20023;-47
2022/06/18 08:36:14;;;;;;;8.80;2.47;;;;;;;22.92;55.18;101098.72;5137806;27;20038;-47
2022/06/18 08:38:44;;;;;;;4.22;2.58;;;;;;;22.57;55.46;101108.28;5137256;27;20038;-46
2022/06/18 08:41:49;;;;;;;7.70;2.45;;;;;;;22.55;56.64;101114.00;5137754;27;20031;-46
2022/06/18 08:44:39;;;;;;;5.07;2.50;;;;;;;22.44;56.51;101136.06;5126107;27;20035;-49
2022/06/18 08:47:38;;;;;;;4.28;2.70;;;;;;;22.26;56.53;101139.97;5138178;27;20038;-47
2022/06/18 08:50:22;;;;;;;5.47;2.30;;;;;;;22.24;56.47;101127.31;5137216;27;20033;-47
2022/06/18 08:53:18;;;;;;;3.58;2.30;;;;;;;22.23;56.63;101135.78;5136881;27;20443;-48
2022/06/18 08:55:56;;;;;;;3.85;2.67;;;;;;;22.20;57.15;101137.13;5137205;27;20039;-47
2022/06/18 08:58:46;;;;;;;3.05;2.22;;;;;;;22.14;57.30;101138.16;5136421;27;20035;-47
2022/06/18 09:01:37;;;;;;;5.32;2.80;;;;;;;21.96;57.83;101124.78;5136901;27;20053;-50
2022/06/18 09:04:30;;;;;;;4.57;2.90;;;;;;;21.72;58.59;101124.19;5136668;27;20064;-51
2022/06/18 09:07:20;;;;;;;7.22;2.58;;;;;;;21.42;59.54;101117.97;5123390;27;20042;-47
2022/06/18 09:10:18;;;;;;;3.05;2.35;;;;;;;21.23;60.35;101127.53;5136431;27;20176;-47
2022/06/18 09:12:55;;;;;;;3.55;2.80;;;;;;;21.06;60.30;101124.78;5136652;27;20082;-48
2022/06/18 09:15:28;;;;;;;7.05;2.88;;;;;;;20.52;61.51;101073.31;5138013;27;20071;-48
2022/06/18 09:18:00;;;;;;;5.00;2.50;;;;;;;20.87;61.29;101102.34;5136180;27;20390;-47
2022/06/18 09:20:32;;;;;;;4.03;2.00;;;;;;;20.76;61.24;101108.69;5137831;27;20120;-49
2022/06/18 09:23:08;;;;;;;1.30;1.20;;;;;;;20.64;61.68;101111.50;5137595;27;20031;-47
2022/06/18 09:25:41;;;;;;;1.40;1.30;;;;;;;20.52;61.72;101091.56;5137511;27;20113;-48
2022/06/18 09:28:14;;;;;;;2.15;1.25;;;;;;;20.61;61.27;101120.16;5137858;27;20027;-48
2022/06/18 09:30:43;;;;;;;2.75;1.38;;;;;;;20.53;60.97;101132.28;5137897;27;20085;-47
2022/06/18 09:33:16;;;;;;;2.05;1.60;;;;;;;20.35;61.46;101124.28;5137427;27;20042;-48
2022/06/18 09:35:51;;;;;;;1.98;1.88;;;;;;;20.24;62.55;101134.97;5118847;27;20061;-47
2022/06/18 09:38:32;;;;;;;1.80;1.70;;;;;;;20.25;62.18;101131.19;5137475;27;20111;-47
2022/06/18 09:41:03;;;;;;;1.85;1.70;;;;;;;20.13;62.22;101124.91;5137601;27;20030;-47
2022/06/18 09:43:59;;;;;;;2.60;2.40;;;;;;;20.00;63.25;101119.75;5137503;27;20027;-47
2022/06/18 09:46:28;;;;;;;2.50;2.33;;;;;;;19.89;63.18;101099.59;5137216;27;20471;-47
2022/06/18 09:48:54;;;;;;;2.38;2.28;;;;;;;19.82;63.29;101099.75;5137363;27;20031;-49
2022/06/18 09:51:34;;;;;;;2.40;2.20;;;;;;;19.85;63.75;101112.06;5136996;27;20497;-49
2022/06/18 09:54:05;;;;;;;3.85;2.38;;;;;;;19.85;64.34;101092.97;5137241;27;20035;-48
2022/06/18 09:56:35;;;;;;;2.50;2.40;;;;;;;19.92;64.73;101104.59;5136692;27;20023;-48
2022/06/18 09:59:11;;;;;;;1.10;1.00;;;;;;;19.85;65.16;101134.69;5101613;27;20106;-50
2022/06/18 10:01:42;;;;;;;0.70;0.70;;;;;;;19.53;65.58;101158.75;5136598;27;20106;-46
2022/06/18 10:06:58;;;;;;;0.80;0.80;;;;;;;19.15;65.91;101179.88;5135356;27;20475;-47
2022/06/18 10:09:31;;;;;;;1.00;0.70;;;;;;;19.19;65.48;101182.97;5117662;27;20073;-46
2022/06/18 10:11:57;;;;;;;1.88;0.70;;;;;;;18.89;65.45;101123.97;5118207;27;20027;-47
2022/06/18 10:14:24;;;;;;;1.30;0.70;;;;;;;19.00;65.62;101178.66;5137187;27;20031;-47
2022/06/18 10:17:06;;;;;;;0.93;0.50;;;;;;;18.89;65.37;101224.66;5134891;27;20432;-51
2022/06/18 10:20:02;;;;;;;0.60;0.60;;;;;;;18.82;65.49;101250.31;5134846;27;20023;-51
2022/06/18 10:22:58;;;;;;;0.70;0.50;;;;;;;18.77;65.14;101243.59;5134624;27;20054;-50
2022/06/18 10:25:45;;;;;;;0.93;0.50;;;;;;;18.68;65.04;101217.78;5136554;27;20443;-51
2022/06/18 10:28:39;;;;;;;1.52;0.50;;;;;;;18.72;65.15;101180.91;5135881;27;20034;-48
2022/06/18 10:31:41;;;;;;;1.85;0.40;;;;;;;18.47;64.79;101139.38;5122039;27;20042;-47
2022/06/18 10:34:46;;;;;;;1.95;0.60;;;;;;;18.45;64.95;101066.19;5135299;27;20063;-48
2022/06/18 10:37:28;;;;;;;0.90;0.63;;;;;;;18.08;65.87;101047.22;5123651;27;20096;-48
2022/06/18 10:40:20;;;;;;;1.40;0.57;;;;;;;18.26;65.26;101040.94;5135752;27;20043;-54
2022/06/18 10:43:26;;;;;;;1.15;0.68;;;;;;;18.25;65.54;101082.75;5136593;27;20434;-53
2022/06/18 10:45:59;;;;;;;1.23;0.60;;;;;;;18.11;65.71;101146.53;5124006;27;20031;-49
2022/06/18 10:48:30;;;;;;;1.17;0.80;;;;;;;17.64;65.65;101148.88;5138034;27;20023;-50
2022/06/18 10:50:58;;;;;;;1.48;0.88;;;;;;;17.53;66.70;101189.31;5137919;27;20028;-50
2022/06/18 10:53:35;;;;;;;2.88;2.00;;;;;;;17.40;67.35;101197.53;5136670;27;20027;-51
2022/06/18 10:56:04;;;;;;;2.65;1.00;;;;;;;17.50;66.50;101229.66;5135030;27;20034;-48
2022/06/18 10:58:30;;;;;;;1.10;0.77;;;;;;;17.22;67.36;101239.03;5135802;27;20027;-52
2022/06/18 11:01:05;;;;;;;1.23;0.98;;;;;;;17.16;68.09;101248.88;5135251;27;20016;-43
2022/06/18 11:03:32;;;;;;;1.15;0.80;;;;;;;17.27;66.78;101214.75;5135765;27;20035;-44
2022/06/18 11:06:04;;;;;;;1.85;0.85;;;;;;;17.35;67.15;101216.41;5134050;27;20056;-44
2022/06/18 11:08:33;;;;;;;2.40;0.80;;;;;;;17.50;65.85;101207.91;5135382;27;20058;-44
2022/06/18 11:11:03;;;;;;;2.08;0.82;;;;;;;17.64;65.81;101212.16;5137247;27;20126;-43
2022/06/18 11:13:35;;;;;;;2.60;1.00;;;;;;;17.66;64.74;101209.22;5136083;27;20090;-44
2022/06/18 11:16:38;;;;;;;2.70;0.70;;;;;;;17.53;66.20;101194.72;5134191;27;20037;-49
2022/06/18 11:19:17;;;;;;;5.07;0.95;;;;;;;17.58;65.98;101191.34;5133864;27;20076;-47
2022/06/18 11:21:43;;;;;;;3.80;0.93;;;;;;;17.49;65.82;101171.75;5133731;27;20023;-44
2022/06/18 11:24:32;;;;;;;2.60;1.00;;;;;;;17.52;66.02;101175.94;5135171;27;20031;-45
2022/06/18 11:27:02;;;;;;;3.60;0.90;;;;;;;17.53;65.64;101199.31;5134138;27;20054;-44
2022/06/18 11:29:36;;;;;;;1.13;0.70;;;;;;;17.17;67.30;101198.13;5134859;27;20027;-44
2022/06/18 11:32:10;;;;;;;2.13;0.90;;;;;;;17.05;68.39;101203.44;5135335;27;20039;-47
2022/06/18 11:34:39;;;;;;;1.35;1.00;;;;;;;17.18;67.69;101192.50;5135129;27;20039;-44
2022/06/18 11:37:27;;;;;;;2.72;1.00;;;;;;;17.08;68.05;101170.41;5135059;27;20063;-44
2022/06/18 11:40:03;;;;;;;0.95;0.82;;;;;;;17.14;67.61;101190.41;5135388;27;20054;-46
2022/06/18 11:42:44;;;;;;;1.02;0.75;;;;;;;17.08;68.76;101181.28;5138793;27;20553;-44
2022/06/18 11:45:50;;;;;;;1.88;1.00;;;;;;;17.05;69.47;101156.44;5138895;27;20035;-45
2022/06/18 11:48:37;;;;;;;;;;;;;;;17.28;69.26;101069.84;5138280;27;20172;-45
2022/06/18 11:51:14;;;;;;;1.50;0.93;;;;;;;17.30;68.53;101096.75;5137142;27;19911;-47